Time;durP1;ratioP1;P1;durP2;ratioP2;P2;SDS_P1;SDS_P2;PMS_P1;PMS_P2;Temp;Humidity;BMP_temperature;BMP_pressure;BME280_temperature;BME280_humidity;BME280_pressure;Samples;Min_cycle;Max_cycle;Signal;HPM_P1;HPM_P2
2022/07/20 00:00:33;;;;;;;5.03;2.10;;;;;;;;;;5001859;28;20049;-71
2022/07/20 00:03:05;;;;;;;6.72;2.33;;;;;;;;;;5002374;28;20033;-71
2022/07/20 00:05:31;;;;;;;3.22;2.20;;;;;;;;;;5002310;28;20038;-71
2022/07/20 00:07:56;;;;;;;2.92;2.00;;;;;;;;;;5002401;28;20046;-71
2022/07/20 00:13:06;;;;;;;6.22;2.22;;;;;;;;;;5001823;28;20048;-70
2022/07/20 00:15:31;;;;;;;7.90;2.45;;;;;;;;;;5002476;28;20037;-71
2022/07/20 00:17:57;;;;;;;4.50;2.30;;;;;;;;;;5002589;28;20065;-71
2022/07/20 00:20:22;;;;;;;3.65;2.00;;;;;;;;;;5002373;28;20042;-70
2022/07/20 00:22:48;;;;;;;7.65;2.30;;;;;;;;;;5001338;28;20073;-71
2022/07/20 00:25:13;;;;;;;7.13;2.00;;;;;;;;;;5002323;28;20065;-70
2022/07/20 00:27:38;;;;;;;5.90;2.30;;;;;;;;;;5001671;28;20144;-71
2022/07/20 00:30:05;;;;;;;4.22;2.15;;;;;;;;;;5002517;28;20161;-71
2022/07/20 00:32:35;;;;;;;8.10;2.10;;;;;;;;;;5002113;28;20029;-71
2022/07/20 00:35:01;;;;;;;6.80;2.30;;;;;;;;;;5001478;28;20034;-71
2022/07/20 00:37:26;;;;;;;6.28;2.10;;;;;;;;;;5002781;28;20061;-70
2022/07/20 00:39:52;;;;;;;6.32;2.20;;;;;;;;;;5002138;28;20038;-70
2022/07/20 00:42:17;;;;;;;3.70;2.05;;;;;;;;;;5001532;28;20048;-70
2022/07/20 00:44:42;;;;;;;2.63;2.30;;;;;;;;;;5001207;28;20044;-71
2022/07/20 00:47:08;;;;;;;5.88;2.28;;;;;;;;;;5002018;28;20038;-70
2022/07/20 00:49:33;;;;;;;7.10;2.40;;;;;;;;;;5002308;28;20049;-70
2022/07/20 00:51:59;;;;;;;4.15;2.47;;;;;;;;;;5002561;28;20128;-70
2022/07/20 00:54:24;;;;;;;4.85;2.55;;;;;;;;;;5002411;28;20164;-70
2022/07/20 00:56:50;;;;;;;6.10;2.05;;;;;;;;;;5001680;28;20115;-71
2022/07/20 00:59:15;;;;;;;4.53;2.17;;;;;;;;;;5002110;28;20029;-70
2022/07/20 01:01:41;;;;;;;7.00;2.33;;;;;;;;;;5002054;28;20412;-70
2022/07/20 01:04:06;;;;;;;11.05;2.33;;;;;;;;;;5001419;28;20038;-70
2022/07/20 01:06:32;;;;;;;6.10;2.20;;;;;;;;;;5002389;28;20045;-71
2022/07/20 01:08:58;;;;;;;3.92;2.40;;;;;;;;;;5003865;28;20041;-70
2022/07/20 01:11:24;;;;;;;2.78;2.25;;;;;;;;;;5006613;28;20033;-71
2022/07/20 01:13:50;;;;;;;7.28;2.58;;;;;;;;;;5007073;28;20056;-70
2022/07/20 01:16:15;;;;;;;3.55;2.10;;;;;;;;;;5006370;28;20038;-70
2022/07/20 01:18:41;;;;;;;2.97;2.20;;;;;;;;;;5006601;28;20048;-70
2022/07/20 01:21:08;;;;;;;3.55;1.92;;;;;;;;;;5006917;28;20096;-70
2022/07/20 01:23:34;;;;;;;7.55;2.50;;;;;;;;;;5006729;28;20486;-70
2022/07/20 01:26:00;;;;;;;5.97;2.38;;;;;;;;;;5006777;28;20859;-70
2022/07/20 01:28:28;;;;;;;7.22;2.22;;;;;;;;;;5002848;28;20030;-70
2022/07/20 01:30:53;;;;;;;6.40;2.53;;;;;;;;;;5006061;28;20114;-71
2022/07/20 01:33:19;;;;;;;5.40;2.70;;;;;;;;;;5006539;28;20034;-70
2022/07/20 01:35:45;;;;;;;4.50;2.00;;;;;;;;;;5006748;28;20040;-71
2022/07/20 01:38:10;;;;;;;7.15;2.40;;;;;;;;;;5006829;28;20064;-70
2022/07/20 01:40:36;;;;;;;7.55;2.47;;;;;;;;;;5005777;28;20026;-70
2022/07/20 01:43:01;;;;;;;3.28;2.20;;;;;;;;;;5006471;28;21002;-70
2022/07/20 01:45:27;;;;;;;4.32;2.78;;;;;;;;;;5006404;28;20042;-71
2022/07/20 01:47:52;;;;;;;6.47;2.50;;;;;;;;;;5005295;28;20038;-70
2022/07/20 01:50:17;;;;;;;4.80;2.22;;;;;;;;;;5004754;28;20048;-70
2022/07/20 01:52:43;;;;;;;3.28;2.40;;;;;;;;;;5004796;28;20045;-70
2022/07/20 01:55:09;;;;;;;5.25;2.70;;;;;;;;;;5005208;28;20060;-71
2022/07/20 01:57:34;;;;;;;4.38;2.42;;;;;;;;;;5005304;28;20034;-71
2022/07/20 02:00:00;;;;;;;8.07;2.60;;;;;;;;;;5005750;28;20092;-70
2022/07/20 02:02:25;;;;;;;9.68;2.38;;;;;;;;;;5005004;28;20208;-71
2022/07/20 02:04:50;;;;;;;3.95;2.70;;;;;;;;;;5004475;28;20148;-71
2022/07/20 02:07:16;;;;;;;3.47;2.30;;;;;;;;;;5004952;28;20082;-70
2022/07/20 02:09:41;;;;;;;5.25;2.10;;;;;;;;;;5005089;28;20076;-70
2022/07/20 02:12:07;;;;;;;4.15;2.38;;;;;;;;;;5004101;28;20034;-70
2022/07/20 02:14:32;;;;;;;4.82;2.50;;;;;;;;;;5004599;28;20479;-71
2022/07/20 02:16:58;;;;;;;6.68;2.75;;;;;;;;;;5005832;28;20491;-70
2022/07/20 02:19:23;;;;;;;7.50;2.70;;;;;;;;;;5004508;28;20296;-71
2022/07/20 02:21:49;;;;;;;9.95;2.63;;;;;;;;;;5004468;28;20034;-70
2022/07/20 02:24:14;;;;;;;5.75;2.50;;;;;;;;;;5003729;28;20076;-70
2022/07/20 02:26:40;;;;;;;4.28;2.58;;;;;;;;;;5004096;28;20053;-70
2022/07/20 02:29:05;;;;;;;4.03;2.15;;;;;;;;;;5004144;28;20417;-70
2022/07/20 02:31:31;;;;;;;3.33;2.40;;;;;;;;;;5004000;28;20093;-70
2022/07/20 02:33:56;;;;;;;5.47;2.53;;;;;;;;;;5003586;28;20022;-71
2022/07/20 02:36:21;;;;;;;4.43;2.70;;;;;;;;;;5003933;28;20080;-70
2022/07/20 02:38:47;;;;;;;8.40;2.20;;;;;;;;;;5004278;28;20124;-71
2022/07/20 02:41:13;;;;;;;10.00;3.00;;;;;;;;;;5003687;28;20125;-71
2022/07/20 02:43:38;;;;;;;6.82;2.92;;;;;;;;;;5004439;28;20030;-70
2022/07/20 02:46:04;;;;;;;6.05;2.67;;;;;;;;;;5003411;28;20593;-71
2022/07/20 02:48:30;;;;;;;5.65;2.53;;;;;;;;;;5005517;28;20048;-71
2022/07/20 02:50:55;;;;;;;7.22;2.78;;;;;;;;;;5005671;28;20033;-71
2022/07/20 02:53:21;;;;;;;7.82;2.65;;;;;;;;;;5004769;28;20406;-71
2022/07/20 02:55:47;;;;;;;5.65;2.60;;;;;;;;;;5003003;28;20410;-70
2022/07/20 02:58:13;;;;;;;4.20;2.40;;;;;;;;;;5002758;28;20029;-70
2022/07/20 03:00:40;;;;;;;7.80;2.70;;;;;;;;;;5004106;28;20029;-70
2022/07/20 03:03:06;;;;;;;7.18;2.60;;;;;;;;;;5003646;28;20486;-70
2022/07/20 03:05:32;;;;;;;8.32;2.90;;;;;;;;;;5003419;28;20038;-70
2022/07/20 03:07:58;;;;;;;7.63;2.83;;;;;;;;;;5002174;28;20892;-70
2022/07/20 03:10:23;;;;;;;6.07;3.00;;;;;;;;;;5003501;28;20505;-71
2022/07/20 03:12:49;;;;;;;11.10;3.20;;;;;;;;;;5003133;28;20403;-70
2022/07/20 03:15:14;;;;;;;7.93;3.03;;;;;;;;;;5003103;28;20041;-70
2022/07/20 03:17:51;;;;;;;3.92;2.53;;;;;;;;;;5002502;28;20079;-70
2022/07/20 03:20:28;;;;;;;4.95;2.97;;;;;;;;;;5003020;28;20037;-70
2022/07/20 03:22:55;;;;;;;5.35;2.75;;;;;;;;;;5003344;28;20136;-70
2022/07/20 03:25:21;;;;;;;6.13;2.75;;;;;;;;;;5003231;28;20418;-70
2022/07/20 03:27:46;;;;;;;5.28;2.97;;;;;;;;;;5002979;28;20831;-70
2022/07/20 03:30:13;;;;;;;5.53;2.50;;;;;;;;;;4999794;28;20033;-70
2022/07/20 03:32:38;;;;;;;7.45;3.00;;;;;;;;;;5002338;28;20095;-70
2022/07/20 03:35:05;;;;;;;6.78;2.80;;;;;;;;;;5003561;28;20473;-70
2022/07/20 03:37:30;;;;;;;3.95;2.72;;;;;;;;;;5003290;28;20065;-70
2022/07/20 03:39:56;;;;;;;5.40;2.75;;;;;;;;;;5001701;28;20061;-70
2022/07/20 03:42:21;;;;;;;5.47;3.75;;;;;;;;;;5003023;28;20142;-70
2022/07/20 03:44:46;;;;;;;6.95;3.97;;;;;;;;;;5003209;28;20041;-71
2022/07/20 03:47:13;;;;;;;5.75;3.65;;;;;;;;;;5002921;28;20041;-70
2022/07/20 03:49:38;;;;;;;11.85;3.78;;;;;;;;;;5004040;28;20121;-70
2022/07/20 03:52:04;;;;;;;12.48;3.65;;;;;;;;;;5002061;28;20128;-70
2022/07/20 03:54:30;;;;;;;7.70;5.10;;;;;;;;;;5002847;28;20040;-70
2022/07/20 03:56:55;;;;;;;7.80;5.13;;;;;;;;;;5002724;28;20038;-70
2022/07/20 03:59:20;;;;;;;7.47;3.72;;;;;;;;;;5003091;28;20033;-70
2022/07/20 04:01:46;;;;;;;6.15;3.67;;;;;;;;;;5001559;28;20135;-70
2022/07/20 04:04:11;;;;;;;6.97;3.45;;;;;;;;;;5002618;28;20551;-70
2022/07/20 04:06:37;;;;;;;6.88;3.08;;;;;;;;;;5002201;28;20049;-70
2022/07/20 04:09:03;;;;;;;6.93;2.92;;;;;;;;;;5003026;28;20041;-70
2022/07/20 04:11:28;;;;;;;5.05;2.70;;;;;;;;;;5002874;28;20063;-70
2022/07/20 04:13:54;;;;;;;6.22;3.25;;;;;;;;;;5002301;28;20034;-70
2022/07/20 04:16:19;;;;;;;8.43;3.17;;;;;;;;;;5002383;28;20645;-70
2022/07/20 04:18:45;;;;;;;8.55;3.10;;;;;;;;;;5002182;28;20038;-70
2022/07/20 04:21:10;;;;;;;5.07;3.15;;;;;;;;;;5002471;28;20030;-70
2022/07/20 04:23:36;;;;;;;17.88;3.33;;;;;;;;;;5001766;28;20137;-70
2022/07/20 04:26:01;;;;;;;5.68;3.08;;;;;;;;;;5002314;28;20038;-70
2022/07/20 04:28:27;;;;;;;8.18;3.25;;;;;;;;;;5002522;28;20103;-70
2022/07/20 04:30:52;;;;;;;10.32;3.40;;;;;;;;;;5002593;28;20483;-70
2022/07/20 04:33:20;;;;;;;3.78;2.90;;;;;;;;;;5000994;28;20037;-70
2022/07/20 04:35:46;;;;;;;5.72;3.33;;;;;;;;;;5001582;28;20419;-70
2022/07/20 04:38:17;;;;;;;6.00;3.17;;;;;;;;;;5002988;28;20554;-70
2022/07/20 04:40:43;;;;;;;5.07;3.30;;;;;;;;;;5002578;28;20041;-70
2022/07/20 04:43:08;;;;;;;5.10;3.35;;;;;;;;;;5003867;28;20489;-70
2022/07/20 04:45:33;;;;;;;6.53;2.90;;;;;;;;;;5005545;28;20034;-70
2022/07/20 04:47:59;;;;;;;4.50;3.05;;;;;;;;;;5005705;28;20044;-70
2022/07/20 04:54:11;;;;;;;9.38;3.28;;;;;;;;;;5007114;28;20111;-72
2022/07/20 04:56:37;;;;;;;8.75;3.08;;;;;;;;;;4999713;28;20498;-72
2022/07/20 04:59:03;;;;;;;5.15;3.03;;;;;;;;;;5004995;28;20030;-71
2022/07/20 05:01:29;;;;;;;9.70;3.15;;;;;;;;;;5004764;28;20120;-73
2022/07/20 05:03:54;;;;;;;4.50;3.28;;;;;;;;;;5004947;28;20466;-72
2022/07/20 05:06:20;;;;;;;7.38;3.50;;;;;;;;;;5001688;28;20042;-73
2022/07/20 05:09:01;;;;;;;9.82;3.70;;;;;;;;;;5005641;28;20049;-70
2022/07/20 05:11:26;;;;;;;9.48;3.25;;;;;;;;;;5004960;28;20751;-70
2022/07/20 05:13:53;;;;;;;5.18;3.25;;;;;;;;;;5004340;28;20096;-73
2022/07/20 05:16:18;;;;;;;5.38;3.30;;;;;;;;;;5004093;28;20056;-73
2022/07/20 05:18:44;;;;;;;10.00;3.38;;;;;;;;;;4999526;28;20053;-73
2022/07/20 05:21:10;;;;;;;3.67;2.72;;;;;;;;;;5000616;28;20455;-74
2022/07/20 05:23:35;;;;;;;7.45;3.35;;;;;;;;;;5000778;28;20521;-74
2022/07/20 05:26:01;;;;;;;5.88;3.47;;;;;;;;;;5000176;28;20034;-73
2022/07/20 05:28:27;;;;;;;7.13;3.50;;;;;;;;;;5000986;28;20050;-73
2022/07/20 05:30:52;;;;;;;5.45;3.17;;;;;;;;;;5000095;28;20041;-75
2022/07/20 05:33:18;;;;;;;6.53;3.40;;;;;;;;;;5002708;28;20057;-73
2022/07/20 05:35:44;;;;;;;7.20;3.38;;;;;;;;;;5002878;28;20084;-72
2022/07/20 05:38:10;;;;;;;8.38;3.42;;;;;;;;;;5004820;28;20030;-73
2022/07/20 05:40:36;;;;;;;7.53;3.70;;;;;;;;;;5004054;28;20033;-73
2022/07/20 05:43:01;;;;;;;11.95;4.20;;;;;;;;;;5005074;28;20409;-76
2022/07/20 05:45:27;;;;;;;9.93;3.90;;;;;;;;;;5003766;28;20053;-72
2022/07/20 05:47:52;;;;;;;5.82;3.70;;;;;;;;;;5004139;28;20453;-74
2022/07/20 05:50:18;;;;;;;12.73;3.53;;;;;;;;;;5004228;28;20037;-74
2022/07/20 05:52:43;;;;;;;6.03;3.28;;;;;;;;;;5002635;28;20127;-73
2022/07/20 05:55:09;;;;;;;4.90;3.42;;;;;;;;;;5003127;28;20053;-72
2022/07/20 05:57:34;;;;;;;4.88;3.80;;;;;;;;;;5004110;28;20136;-72
2022/07/20 05:59:59;;;;;;;11.50;3.97;;;;;;;;;;5004083;28;20493;-73
2022/07/20 06:02:25;;;;;;;12.18;4.30;;;;;;;;;;5003586;28;20125;-72
2022/07/20 06:04:50;;;;;;;8.35;3.50;;;;;;;;;;5003621;28;20041;-74
2022/07/20 06:07:16;;;;;;;15.57;4.47;;;;;;;;;;5003357;28;20021;-72
2022/07/20 06:09:41;;;;;;;17.67;4.18;;;;;;;;;;5003353;28;20091;-73
2022/07/20 06:12:07;;;;;;;5.38;3.83;;;;;;;;;;5004075;28;20568;-72
2022/07/20 06:14:33;;;;;;;11.90;4.03;;;;;;;;;;5002429;28;20049;-73
2022/07/20 06:16:58;;;;;;;5.22;3.55;;;;;;;;;;5003537;28;20045;-71
2022/07/20 06:19:23;;;;;;;9.38;4.25;;;;;;;;;;5003852;28;20041;-72
2022/07/20 06:21:49;;;;;;;6.47;4.20;;;;;;;;;;5003746;28;20049;-75
2022/07/20 06:24:14;;;;;;;8.15;3.95;;;;;;;;;;5002510;28;20064;-73
2022/07/20 06:26:40;;;;;;;7.30;3.97;;;;;;;;;;5002948;28;20050;-74
2022/07/20 06:29:06;;;;;;;9.65;4.13;;;;;;;;;;5003641;28;20557;-72
2022/07/20 06:31:31;;;;;;;7.18;3.63;;;;;;;;;;5003608;28;20562;-72
2022/07/20 06:33:56;;;;;;;11.15;4.13;;;;;;;;;;5003672;28;20060;-72
2022/07/20 06:36:22;;;;;;;11.38;3.65;;;;;;;;;;5000675;28;20034;-72
2022/07/20 06:38:47;;;;;;;4.90;3.67;;;;;;;;;;5003381;28;20096;-73
2022/07/20 06:41:13;;;;;;;7.20;3.78;;;;;;;;;;5003106;28;20100;-72
2022/07/20 06:43:38;;;;;;;6.35;3.80;;;;;;;;;;5003390;28;20088;-72
2022/07/20 06:46:03;;;;;;;6.88;3.70;;;;;;;;;;5002666;28;20088;-73
2022/07/20 06:48:29;;;;;;;5.28;4.07;;;;;;;;;;5002866;28;20399;-71
2022/07/20 06:50:54;;;;;;;4.40;3.47;;;;;;;;;;5002772;28;20068;-72
2022/07/20 06:53:20;;;;;;;8.75;3.53;;;;;;;;;;5003259;28;20038;-72
2022/07/20 06:55:45;;;;;;;4.30;3.80;;;;;;;;;;5002481;28;20034;-72
2022/07/20 06:58:11;;;;;;;7.13;3.75;;;;;;;;;;5002380;28;20040;-72
2022/07/20 07:00:37;;;;;;;8.70;3.63;;;;;;;;;;5001283;28;20033;-73
2022/07/20 07:03:03;;;;;;;5.15;3.53;;;;;;;;;;5003349;28;20037;-73
2022/07/20 07:05:28;;;;;;;6.50;3.58;;;;;;;;;;5002258;28;20045;-72
2022/07/20 07:07:54;;;;;;;7.63;3.85;;;;;;;;;;5001581;28;20068;-72
2022/07/20 07:10:19;;;;;;;13.48;3.80;;;;;;;;;;5001727;28;20037;-72
2022/07/20 07:12:45;;;;;;;4.35;3.53;;;;;;;;;;5002684;28;20053;-71
2022/07/20 07:15:10;;;;;;;7.55;3.70;;;;;;;;;;5002426;28;20048;-74
2022/07/20 07:17:36;;;;;;;7.38;3.90;;;;;;;;;;5002693;28;20049;-75
2022/07/20 07:20:02;;;;;;;6.15;3.55;;;;;;;;;;5001803;28;20486;-74
2022/07/20 07:22:28;;;;;;;6.75;3.78;;;;;;;;;;5002203;28;20042;-74
2022/07/20 07:24:54;;;;;;;6.22;3.70;;;;;;;;;;5001306;28;20500;-71
2022/07/20 07:27:20;;;;;;;6.65;3.47;;;;;;;;;;5002609;28;20180;-72
2022/07/20 07:29:46;;;;;;;5.38;3.78;;;;;;;;;;5018732;28;20372;-70
2022/07/20 07:32:11;;;;;;;5.15;3.40;;;;;;;;;;5001793;28;20037;-72
2022/07/20 07:34:37;;;;;;;9.68;4.63;;;;;;;;;;5002828;28;20845;-72
2022/07/20 07:37:03;;;;;;;10.00;4.32;;;;;;;;;;5003252;28;20037;-72
2022/07/20 07:39:28;;;;;;;11.00;3.85;;;;;;;;;;5003900;28;20079;-73
2022/07/20 07:41:54;;;;;;;7.45;3.85;;;;;;;;;;5001951;28;20505;-73
2022/07/20 07:44:19;;;;;;;5.75;3.63;;;;;;;;;;5002317;28;20117;-74
2022/07/20 07:46:45;;;;;;;8.35;4.05;;;;;;;;;;5001514;28;20046;-73
2022/07/20 07:49:11;;;;;;;10.27;3.65;;;;;;;;;;5002399;28;20037;-73
2022/07/20 07:51:37;;;;;;;8.05;3.97;;;;;;;;;;5002202;28;20049;-73
2022/07/20 07:54:03;;;;;;;7.10;3.50;;;;;;;;;;5000830;28;20026;-74
2022/07/20 07:56:29;;;;;;;5.22;4.00;;;;;;;;;;5002652;28;20060;-73
2022/07/20 07:58:54;;;;;;;5.55;3.85;;;;;;;;;;5002500;28;20046;-74
2022/07/20 08:01:20;;;;;;;4.20;3.70;;;;;;;;;;5002185;28;20079;-72
2022/07/20 08:03:45;;;;;;;5.13;3.55;;;;;;;;;;5000929;28;20049;-71
2022/07/20 08:06:10;;;;;;;6.80;4.40;;;;;;;;;;5001304;28;20490;-72
2022/07/20 08:08:36;;;;;;;6.50;3.75;;;;;;;;;;5001771;28;20053;-72
2022/07/20 08:11:02;;;;;;;5.15;3.63;;;;;;;;;;5001571;28;20034;-71
2022/07/20 08:13:28;;;;;;;6.07;3.97;;;;;;;;;;5001379;28;20095;-72
2022/07/20 08:15:54;;;;;;;7.63;3.75;;;;;;;;;;5000004;28;20039;-70
2022/07/20 08:18:19;;;;;;;8.32;3.95;;;;;;;;;;5000940;28;20049;-71
2022/07/20 08:20:46;;;;;;;5.50;3.63;;;;;;;;;;5000411;28;20042;-73
2022/07/20 08:23:11;;;;;;;9.25;4.10;;;;;;;;;;5001762;28;20092;-72
2022/07/20 08:25:37;;;;;;;6.50;4.18;;;;;;;;;;5000108;28;20034;-72
2022/07/20 08:28:15;;;;;;;9.43;4.03;;;;;;;;;;5001410;28;20140;-73
2022/07/20 08:30:43;;;;;;;6.05;3.97;;;;;;;;;;5001556;28;20041;-70
2022/07/20 08:33:09;;;;;;;4.85;3.75;;;;;;;;;;5001260;28;20395;-73
2022/07/20 08:35:35;;;;;;;8.55;3.72;;;;;;;;;;5001031;28;20041;-74
2022/07/20 08:38:00;;;;;;;4.75;3.53;;;;;;;;;;5000662;28;20037;-70
2022/07/20 08:40:27;;;;;;;7.50;3.83;;;;;;;;;;5001637;28;20033;-73
2022/07/20 08:42:53;;;;;;;6.18;3.40;;;;;;;;;;5001459;28;20506;-72
2022/07/20 08:45:18;;;;;;;8.55;4.03;;;;;;;;;;5001283;28;20558;-72
2022/07/20 08:47:45;;;;;;;5.43;3.40;;;;;;;;;;4999780;28;20033;-72
2022/07/20 08:50:11;;;;;;;13.40;4.10;;;;;;;;;;5001474;28;20034;-73
2022/07/20 08:52:37;;;;;;;6.60;4.05;;;;;;;;;;5001764;28;20406;-72
2022/07/20 08:55:04;;;;;;;7.50;3.70;;;;;;;;;;5001808;28;20483;-71
2022/07/20 08:57:31;;;;;;;3.58;3.28;;;;;;;;;;5000829;28;20042;-74
2022/07/20 08:59:56;;;;;;;13.70;3.75;;;;;;;;;;5000285;28;20038;-71
2022/07/20 09:02:22;;;;;;;7.82;4.00;;;;;;;;;;5000831;28;20372;-73
2022/07/20 09:04:50;;;;;;;11.13;3.95;;;;;;;;;;5001527;28;20073;-73
2022/07/20 09:07:16;;;;;;;4.45;3.58;;;;;;;;;;5001121;28;20095;-72
2022/07/20 09:09:42;;;;;;;6.95;4.35;;;;;;;;;;5000259;28;20030;-70
2022/07/20 09:12:07;;;;;;;8.45;3.80;;;;;;;;;;5000784;28;20482;-71
2022/07/20 09:14:42;;;;;;;7.43;4.28;;;;;;;;;;5001211;28;20038;-71
2022/07/20 09:17:20;;;;;;;6.30;3.95;;;;;;;;;;5000560;28;20069;-74
2022/07/20 09:20:00;;;;;;;7.18;4.05;;;;;;;;;;5000108;28;20100;-72
2022/07/20 09:22:37;;;;;;;5.47;3.50;;;;;;;;;;5000618;28;20026;-71
2022/07/20 09:25:10;;;;;;;7.07;3.92;;;;;;;;;;5000931;28;20421;-72
2022/07/20 09:27:36;;;;;;;9.73;3.67;;;;;;;;;;5000798;28;20038;-71
2022/07/20 09:30:09;;;;;;;8.30;4.03;;;;;;;;;;5002827;28;20045;-72
2022/07/20 09:33:01;;;;;;;5.10;3.80;;;;;;;;;;5004595;28;20044;-72
2022/07/20 09:35:30;;;;;;;4.88;3.65;;;;;;;;;;5004130;28;20045;-70
2022/07/20 09:37:57;;;;;;;6.38;3.50;;;;;;;;;;5004380;28;20034;-71
2022/07/20 09:40:24;;;;;;;8.18;4.00;;;;;;;;;;5004542;28;20034;-73
2022/07/20 09:42:49;;;;;;;8.70;4.38;;;;;;;;;;5003183;28;20124;-71
2022/07/20 09:45:26;;;;;;;5.00;3.50;;;;;;;;;;5003758;28;20116;-72
2022/07/20 09:48:08;;;;;;;4.38;3.40;;;;;;;;;;5004233;28;20050;-70
2022/07/20 09:50:43;;;;;;;11.30;3.90;;;;;;;;;;5003705;28;20065;-72
2022/07/20 09:53:10;;;;;;;11.88;4.22;;;;;;;;;;5003633;28;20049;-73
2022/07/20 09:55:37;;;;;;;7.63;3.55;;;;;;;;;;5002824;28;20046;-73
2022/07/20 09:58:03;;;;;;;7.55;4.10;;;;;;;;;;5003801;28;20033;-74
2022/07/20 10:00:31;;;;;;;10.85;4.35;;;;;;;;;;5002679;28;20033;-73
2022/07/20 10:02:59;;;;;;;5.75;3.88;;;;;;;;;;5003581;28;20065;-73
2022/07/20 10:05:29;;;;;;;5.35;3.88;;;;;;;;;;5001716;28;20045;-73
2022/07/20 10:07:55;;;;;;;12.63;4.10;;;;;;;;;;5002846;28;20061;-74
2022/07/20 10:10:20;;;;;;;10.13;3.88;;;;;;;;;;5004009;28;20285;-73
2022/07/20 10:12:45;;;;;;;7.05;4.20;;;;;;;;;;5004023;28;20037;-74
2022/07/20 10:15:17;;;;;;;9.93;4.03;;;;;;;;;;5002576;28;20042;-73
2022/07/20 10:17:44;;;;;;;5.43;3.90;;;;;;;;;;5003608;28;20034;-72
2022/07/20 10:20:30;;;;;;;6.45;3.95;;;;;;;;;;5003674;28;20053;-72
2022/07/20 10:23:29;;;;;;;12.07;4.03;;;;;;;;;;5004002;28;20415;-73
2022/07/20 10:25:55;;;;;;;6.68;3.67;;;;;;;;;;4989224;28;20448;-73
2022/07/20 10:28:28;;;;;;;10.40;3.85;;;;;;;;;;5002543;28;20076;-73
2022/07/20 10:31:01;;;;;;;6.60;3.80;;;;;;;;;;5003470;28;20038;-74
2022/07/20 10:33:27;;;;;;;7.75;4.30;;;;;;;;;;5003268;28;20040;-73
2022/07/20 10:36:41;;;;;;;7.35;3.90;;;;;;;;;;5003262;28;20125;-76
2022/07/20 10:38:39;;;;;;;7.35;3.92;;;;;;;;;;5002788;28;20046;-75
2022/07/20 10:44:21;;;;;;;7.43;3.45;;;;;;;;;;5006956;28;20045;-72
2022/07/20 10:46:48;;;;;;;11.57;3.95;;;;;;;;;;5002684;28;20046;-71
2022/07/20 10:49:14;;;;;;;4.45;3.80;;;;;;;;;;5002376;28;20478;-73
2022/07/20 10:51:40;;;;;;;16.45;4.03;;;;;;;;;;5003141;28;20099;-71
2022/07/20 10:54:30;;;;;;;9.35;3.72;;;;;;;;;;5001183;28;20087;-71
2022/07/20 10:59:37;;;;;;;9.25;4.20;;;;;;;;;;5026395;23;20073;-72
2022/07/20 11:02:03;;;;;;;8.35;3.50;;;;;;;;;;4982733;28;20061;-71
2022/07/20 11:04:28;;;;;;;12.23;3.85;;;;;;;;;;4982981;28;20052;-71
2022/07/20 11:06:54;;;;;;;7.15;3.50;;;;;;;;;;4980425;28;20040;-71
2022/07/20 11:09:19;;;;;;;6.85;3.53;;;;;;;;;;4982994;28;20112;-71
2022/07/20 11:11:44;;;;;;;8.13;3.65;;;;;;;;;;4980663;28;20110;-73
2022/07/20 11:14:11;;;;;;;5.70;3.67;;;;;;;;;;4982640;28;20489;-72
2022/07/20 11:16:38;;;;;;;7.05;3.92;;;;;;;;;;4981179;28;20042;-71
2022/07/20 11:19:05;;;;;;;5.72;3.75;;;;;;;;;;4982501;28;20491;-70
2022/07/20 11:21:38;;;;;;;7.82;3.63;;;;;;;;;;4981876;28;20038;-75
2022/07/20 11:24:28;;;;;;;8.02;3.90;;;;;;;;;;4982126;28;20026;-71
2022/07/20 11:26:54;;;;;;;11.38;4.22;;;;;;;;;;4981777;28;20632;-70
2022/07/20 11:29:21;;;;;;;10.07;4.28;;;;;;;;;;4982586;28;20038;-71
2022/07/20 11:31:47;;;;;;;6.97;4.13;;;;;;;;;;4981181;28;20077;-74
2022/07/20 11:34:13;;;;;;;6.68;3.72;;;;;;;;;;4981104;28;20943;-71
2022/07/20 11:36:39;;;;;;;9.65;4.30;;;;;;;;;;4981671;28;20121;-74
2022/07/20 11:39:07;;;;;;;11.82;4.13;;;;;;;;;;4980716;28;20518;-72
2022/07/20 11:41:41;;;;;;;9.93;4.45;;;;;;;;;;4981960;28;20042;-73
2022/07/20 11:44:14;;;;;;;5.32;3.78;;;;;;;;;;4980708;28;20046;-72
2022/07/20 11:46:42;;;;;;;10.05;4.20;;;;;;;;;;4982175;28;20053;-72
2022/07/20 11:49:11;;;;;;;6.60;4.10;;;;;;;;;;4982034;28;20133;-72
2022/07/20 11:51:37;;;;;;;6.90;3.78;;;;;;;;;;4981734;28;21009;-73
2022/07/20 11:54:06;;;;;;;5.63;4.00;;;;;;;;;;4980973;28;20038;-73
2022/07/20 11:56:33;;;;;;;8.13;3.97;;;;;;;;;;4981398;28;20503;-73
2022/07/20 11:59:00;;;;;;;8.02;4.45;;;;;;;;;;4981994;28;20112;-73
2022/07/20 12:01:31;;;;;;;8.23;4.10;;;;;;;;;;4982003;28;20070;-73
2022/07/20 12:04:06;;;;;;;6.00;3.63;;;;;;;;;;4981807;28;20549;-72
2022/07/20 12:06:34;;;;;;;5.97;3.60;;;;;;;;;;4980514;28;20661;-73
2022/07/20 12:09:04;;;;;;;11.05;3.78;;;;;;;;;;4981735;28;20034;-73
2022/07/20 12:11:30;;;;;;;6.88;3.40;;;;;;;;;;4980806;28;20069;-72
2022/07/20 12:13:55;;;;;;;4.50;3.70;;;;;;;;;;4981597;28;20112;-73
2022/07/20 12:16:21;;;;;;;6.80;3.60;;;;;;;;;;4980736;28;20041;-75
2022/07/20 12:18:51;;;;;;;9.80;3.78;;;;;;;;;;4980750;28;20070;-72
2022/07/20 12:21:25;;;;;;;5.47;3.60;;;;;;;;;;4979998;28;20038;-75
2022/07/20 12:23:52;;;;;;;7.88;3.85;;;;;;;;;;4979736;28;20089;-74
2022/07/20 12:26:21;;;;;;;6.60;3.58;;;;;;;;;;4979599;28;20048;-74
2022/07/20 12:28:47;;;;;;;7.85;3.88;;;;;;;;;;4979159;28;20035;-74
2022/07/20 12:31:18;;;;;;;10.48;4.00;;;;;;;;;;4979325;28;20057;-73
2022/07/20 12:34:00;;;;;;;7.75;4.18;;;;;;;;;;4977853;28;20145;-76
2022/07/20 12:36:50;;;;;;;12.18;4.10;;;;;;;;;;4979496;28;20127;-76
2022/07/20 12:39:54;;;;;;;10.18;4.60;;;;;;;;;;4980904;28;20038;-74
2022/07/20 12:42:23;;;;;;;8.63;3.85;;;;;;;;;;4901787;29;20043;-75
2022/07/20 12:44:58;;;;;;;8.85;4.15;;;;;;;;;;4902066;29;20048;-73
2022/07/20 12:47:23;;;;;;;9.25;4.00;;;;;;;;;;4943684;28;20074;-74
2022/07/20 12:49:49;;;;;;;5.43;3.70;;;;;;;;;;4979546;28;20077;-74
2022/07/20 12:52:14;;;;;;;7.30;3.90;;;;;;;;;;4980272;28;20038;-74
2022/07/20 12:54:39;;;;;;;12.98;4.25;;;;;;;;;;4980218;28;20477;-73
2022/07/20 12:57:05;;;;;;;6.00;3.67;;;;;;;;;;4979866;28;20427;-73
2022/07/20 12:59:30;;;;;;;8.23;4.10;;;;;;;;;;4980300;28;20113;-73
2022/07/20 13:01:56;;;;;;;9.55;4.13;;;;;;;;;;4979738;28;20078;-73
2022/07/20 13:04:25;;;;;;;6.80;3.72;;;;;;;;;;4982963;28;20041;-75
2022/07/20 13:06:52;;;;;;;10.38;3.95;;;;;;;;;;4984358;28;20645;-73
2022/07/20 13:09:20;;;;;;;8.32;3.65;;;;;;;;;;4984922;28;20030;-72
2022/07/20 13:11:46;;;;;;;8.30;3.47;;;;;;;;;;4983824;28;20042;-72
2022/07/20 13:14:19;;;;;;;4.18;3.70;;;;;;;;;;4984394;28;20808;-74
2022/07/20 13:16:46;;;;;;;10.75;3.83;;;;;;;;;;4982032;28;20045;-72
2022/07/20 13:19:11;;;;;;;10.25;4.10;;;;;;;;;;4982526;28;20108;-74
2022/07/20 13:21:37;;;;;;;7.72;3.88;;;;;;;;;;4984756;28;20050;-73
2022/07/20 13:27:51;;;;;;;9.00;3.67;;;;;;;;;;5319314;22;20066;-73
2022/07/20 13:30:16;;;;;;;5.55;3.63;;;;;;;;;;4964791;28;20050;-74
2022/07/20 13:32:43;;;;;;;9.43;3.50;;;;;;;;;;4965338;28;20053;-73
2022/07/20 13:35:08;;;;;;;9.18;3.78;;;;;;;;;;4964426;28;20030;-73
2022/07/20 13:37:36;;;;;;;6.30;3.50;;;;;;;;;;4964756;28;20039;-74
2022/07/20 13:40:01;;;;;;;9.55;3.20;;;;;;;;;;4965514;28;20070;-73
2022/07/20 13:42:26;;;;;;;5.65;3.30;;;;;;;;;;4965119;28;20077;-73
2022/07/20 13:44:52;;;;;;;9.30;3.40;;;;;;;;;;4963270;28;20042;-73
2022/07/20 13:47:17;;;;;;;7.47;3.22;;;;;;;;;;4964949;28;20030;-72
2022/07/20 13:49:43;;;;;;;5.82;3.30;;;;;;;;;;4970259;28;20069;-72
2022/07/20 13:52:08;;;;;;;8.18;3.45;;;;;;;;;;4963689;28;20791;-73
2022/07/20 13:54:33;;;;;;;7.53;3.40;;;;;;;;;;4964416;28;20077;-72
2022/07/20 13:56:59;;;;;;;10.18;3.30;;;;;;;;;;4962315;28;20038;-73
2022/07/20 13:59:24;;;;;;;7.57;3.28;;;;;;;;;;4964079;28;20039;-72
2022/07/20 14:01:50;;;;;;;6.72;3.45;;;;;;;;;;4964744;28;20972;-72
2022/07/20 14:04:16;;;;;;;12.40;3.60;;;;;;;;;;4963246;28;20078;-72
2022/07/20 14:06:44;;;;;;;6.70;3.25;;;;;;;;;;4962246;28;20049;-72
2022/07/20 14:09:11;;;;;;;4.05;3.20;;;;;;;;;;4960306;28;20070;-73
2022/07/20 14:11:37;;;;;;;6.55;3.63;;;;;;;;;;4963756;28;20050;-71
2022/07/20 14:14:04;;;;;;;7.30;3.28;;;;;;;;;;4959296;28;20046;-73
2022/07/20 14:16:31;;;;;;;6.50;3.22;;;;;;;;;;4963197;28;20137;-73
2022/07/20 14:18:56;;;;;;;8.20;3.20;;;;;;;;;;4962687;28;20054;-74
2022/07/20 14:21:22;;;;;;;5.80;3.08;;;;;;;;;;4964042;28;20077;-73
2022/07/20 14:23:48;;;;;;;9.52;3.33;;;;;;;;;;4964291;28;20039;-72
2022/07/20 14:26:14;;;;;;;9.60;3.20;;;;;;;;;;4963503;28;20067;-74
2022/07/20 14:28:40;;;;;;;7.15;3.40;;;;;;;;;;4963116;28;20049;-74
2022/07/20 14:31:05;;;;;;;11.32;3.30;;;;;;;;;;4963109;28;20075;-74
2022/07/20 14:33:32;;;;;;;4.35;3.30;;;;;;;;;;4961583;28;20027;-77
2022/07/20 14:35:58;;;;;;;12.02;3.35;;;;;;;;;;4959464;28;20105;-74
2022/07/20 14:38:23;;;;;;;7.82;3.53;;;;;;;;;;4961800;28;20042;-73
2022/07/20 14:40:49;;;;;;;8.88;3.30;;;;;;;;;;4960472;28;20043;-72
2022/07/20 14:43:14;;;;;;;8.55;3.40;;;;;;;;;;4963340;28;20038;-73
2022/07/20 14:45:40;;;;;;;5.93;3.33;;;;;;;;;;4963077;28;20117;-74
2022/07/20 14:48:05;;;;;;;7.85;3.17;;;;;;;;;;4962808;28;20615;-72
2022/07/20 14:50:31;;;;;;;8.00;3.10;;;;;;;;;;4944612;28;20039;-73
2022/07/20 14:52:56;;;;;;;4.97;3.33;;;;;;;;;;4961490;28;20434;-74
2022/07/20 14:55:23;;;;;;;4.43;2.97;;;;;;;;;;4957163;28;20022;-73